Bess, Alabama
Current Conditions -  °F | °C
As of 3:53 PM on Sunday 25 Jan 2015 (Local Time) from KBHM Reporting Station
Broken Clouds Broken Clouds  
Wind Chill: 59°   Ceiling: 11000
Heat Index: 59°   Visibility: 10mi
Dew Point: 34°   Wind: 13mph
Humidity: 39%   Direction: 220°SW
Pressure: 29.74"   Gusts: NA
Location:  33.4335°N, 86.9037°W
Report Text: KBHM 252153Z 22011KT 10SM FEW040 BKN110 15/01 A2974 RMK AO2 SLP071 T01500011
Loading
Personal Weather Stations






























Interactive Weather Map New forecast layout! Learn more

10-Day Weather Forecast

Advertisements
Track Severe Weather on mobile